Allerton, Iowa
Current Conditions -  °F | °C
As of 6:15 AM on Friday 24 Oct 2014 (Local Time) from KCNC Reporting Station
Moderate Fog Moderate Fog  
Wind Chill: 57°   Ceiling: 200
Heat Index: 57°   Visibility: 0.25mi
Dew Point: 57°   Wind: 9mph
Humidity: 100%   Direction: 200°SSW
Pressure: 30.01"   Gusts: NA
Location:  40.71°N, 93.37°W
Report Text: KCNC 241115Z AUTO 20008KT 1/4SM FG OVC002 14/14 A3001 RMK AO2
Loading
Personal Weather Stations






























Interactive Weather Map
Tropical Storm Tracking
New forecast layout! Learn more

10-Day Weather Forecast

Advertisements
Track Severe Weather on mobile